createdAt,value
2022-11-27T00:02:07.536Z,9.60
2022-11-27T00:09:12.429Z,8.52
2022-11-27T00:16:14.374Z,8.80
2022-11-27T00:23:16.001Z,8.45
2022-11-27T00:30:17.786Z,6.97
2022-11-27T00:37:19.460Z,8.57
2022-11-27T00:44:21.038Z,9.13
2022-11-27T00:51:22.903Z,8.25
2022-11-27T00:58:24.791Z,7.88
2022-11-27T01:05:26.388Z,7.47
2022-11-27T01:12:27.974Z,8.27
2022-11-27T01:19:29.551Z,7.78
2022-11-27T01:26:31.137Z,7.28
2022-11-27T01:33:32.743Z,8.25
2022-11-27T01:40:34.310Z,7.60
2022-11-27T01:47:45.878Z,7.55
2022-11-27T01:55:06.494Z,6.50
2022-11-27T02:09:09.582Z,6.43
2022-11-27T02:16:33.022Z,6.95
2022-11-27T02:23:56.579Z,6.75
2022-11-27T02:31:09.793Z,6.65
2022-11-27T02:38:21.135Z,6.80
2022-11-27T02:45:33.913Z,6.70
2022-11-27T02:52:35.462Z,7.05
2022-11-27T02:59:40.334Z,7.30
2022-11-27T03:06:50.248Z,6.80
2022-11-27T03:13:54.465Z,6.55
2022-11-27T03:21:02.640Z,7.25
2022-11-27T03:28:06.071Z,6.47
2022-11-27T03:35:08.982Z,7.40
2022-11-27T03:42:27.644Z,7.28
2022-11-27T03:49:47.428Z,7.00
2022-11-27T03:56:56.158Z,7.13
2022-11-27T04:03:57.816Z,6.28
2022-11-27T04:10:59.390Z,7.40
2022-11-27T04:18:00.999Z,7.70
2022-11-27T04:25:02.591Z,6.40
2022-11-27T04:32:04.733Z,7.40
2022-11-27T04:39:06.358Z,7.03
2022-11-27T04:46:08.003Z,7.40
2022-11-27T04:53:09.612Z,7.88
2022-11-27T05:00:11.857Z,7.55
2022-11-27T05:07:13.456Z,7.55
2022-11-27T05:14:15.116Z,7.93
2022-11-27T05:21:16.693Z,7.32
2022-11-27T05:28:21.162Z,7.00
2022-11-27T05:35:26.741Z,8.02
2022-11-27T05:42:28.284Z,7.20
2022-11-27T05:49:29.882Z,6.22
2022-11-27T05:56:31.473Z,9.23
2022-11-27T06:03:33.296Z,6.70
2022-11-27T06:10:34.898Z,6.75
2022-11-27T06:17:36.454Z,5.88
2022-11-27T06:24:38.174Z,7.07
2022-11-27T06:31:40.009Z,7.85
2022-11-27T06:38:41.756Z,5.70
2022-11-27T06:45:43.335Z,6.50
2022-11-27T06:52:45.012Z,7.22
2022-11-27T06:59:46.554Z,6.50
2022-11-27T07:06:48.207Z,7.55
2022-11-27T07:13:50.178Z,6.75
2022-11-27T07:20:56.286Z,7.35
2022-11-27T07:27:58.506Z,6.75
2022-11-27T07:35:00.091Z,7.53
2022-11-27T07:42:23.070Z,7.85
2022-11-27T07:49:23.191Z,7.03
2022-11-27T07:56:24.782Z,7.32
2022-11-27T08:03:26.378Z,6.60
2022-11-27T08:10:27.924Z,6.82
2022-11-27T08:17:29.481Z,7.10
2022-11-27T08:24:31.098Z,6.80
2022-11-27T08:31:33.161Z,7.55
2022-11-27T08:38:34.855Z,7.10
2022-11-27T08:45:39.123Z,8.45
2022-11-27T08:52:40.774Z,8.07
2022-11-27T08:59:42.319Z,9.43
2022-11-27T09:06:43.922Z,6.63
2022-11-27T09:13:45.809Z,7.32
2022-11-27T09:20:55.476Z,7.45
2022-11-27T09:27:57.201Z,7.47
2022-11-27T09:34:58.879Z,7.93
2022-11-27T09:42:01.991Z,6.95
2022-11-27T09:49:06.690Z,6.40
2022-11-27T09:56:09.839Z,6.20
2022-11-27T10:03:13.786Z,6.30
2022-11-27T10:10:38.358Z,5.60
2022-11-27T10:18:01.551Z,7.35
2022-11-27T10:25:14.286Z,4.90
2022-11-27T10:32:46.981Z,6.45
2022-11-27T10:39:42.927Z,6.35
2022-11-27T10:46:44.492Z,6.75
2022-11-27T10:53:47.194Z,6.28
2022-11-27T11:00:48.864Z,6.25
2022-11-27T11:08:17.708Z,5.05
2022-11-27T11:15:19.394Z,4.22
2022-11-27T11:22:20.971Z,6.10
2022-11-27T11:29:45.850Z,4.90
2022-11-27T11:36:57.960Z,5.63
2022-11-27T11:44:01.292Z,4.63
2022-11-27T11:51:17.582Z,4.97
2022-11-27T11:59:00.739Z,5.13
2022-11-27T12:06:08.317Z,5.55
2022-11-27T12:13:42.046Z,5.93
2022-11-27T12:20:57.520Z,5.55
2022-11-27T12:27:58.962Z,5.13
2022-11-27T12:35:28.717Z,5.30
2022-11-27T12:42:36.215Z,5.65
2022-11-27T12:49:45.597Z,5.75
2022-11-27T12:56:49.134Z,4.93
2022-11-27T13:04:24.528Z,4.80
2022-11-27T13:11:33.578Z,4.38
2022-11-27T13:18:38.023Z,5.15
2022-11-27T13:25:45.570Z,5.30
2022-11-27T13:32:58.114Z,4.90
2022-11-27T13:40:04.776Z,5.80
2022-11-27T13:47:09.711Z,4.85
2022-11-27T13:54:17.007Z,4.20
2022-11-27T14:01:22.369Z,4.75
2022-11-27T14:08:31.427Z,7.35
2022-11-27T14:15:36.893Z,4.43
2022-11-27T14:23:10.634Z,3.42
2022-11-27T14:30:31.950Z,4.78
2022-11-27T14:37:33.516Z,4.10
2022-11-27T14:44:35.154Z,4.55
2022-11-27T14:51:37.318Z,2.97
2022-11-27T14:58:39.120Z,4.35
2022-11-27T15:05:40.696Z,3.90
2022-11-27T15:12:45.420Z,4.82
2022-11-27T15:19:47.052Z,5.30
2022-11-27T15:26:48.599Z,4.05
2022-11-27T15:33:57.302Z,3.95
2022-11-27T15:41:00.624Z,6.13
2022-11-27T15:48:02.332Z,4.65
2022-11-27T15:55:05.328Z,4.65
2022-11-27T16:02:07.073Z,4.80
2022-11-27T16:09:08.705Z,4.70
2022-11-27T16:16:10.377Z,6.03
2022-11-27T16:23:11.997Z,5.40
2022-11-27T16:30:13.879Z,5.88
2022-11-27T16:37:18.375Z,7.07
2022-11-27T16:44:20.333Z,4.75
2022-11-27T16:51:26.342Z,4.18
2022-11-27T16:58:28.081Z,5.65
2022-11-27T17:05:29.721Z,5.10
2022-11-27T17:12:32.458Z,4.85
2022-11-27T17:19:34.207Z,7.25
2022-11-27T17:26:42.100Z,5.47
2022-11-27T17:33:43.807Z,6.30
2022-11-27T17:40:45.412Z,5.20
2022-11-27T17:47:47.005Z,6.03
2022-11-27T17:54:48.603Z,6.25
2022-11-27T18:01:53.144Z,5.65
2022-11-27T18:08:57.296Z,5.25
2022-11-27T18:16:13.169Z,5.35
2022-11-27T18:23:15.516Z,5.55
2022-11-27T18:30:17.169Z,5.47
2022-11-27T18:37:18.745Z,5.82
2022-11-27T18:44:20.577Z,5.30
2022-11-27T18:51:23.714Z,6.30
2022-11-27T18:58:26.340Z,8.32
2022-11-27T19:05:27.950Z,6.47
2022-11-27T19:12:29.610Z,6.03
2022-11-27T19:26:54.791Z,6.95
2022-11-27T19:33:58.924Z,5.97
2022-11-27T19:41:00.677Z,5.45
2022-11-27T19:48:02.498Z,6.13
2022-11-27T19:55:04.807Z,4.70
2022-11-27T20:02:12.305Z,6.15
2022-11-27T20:09:13.980Z,5.60
2022-11-27T20:16:17.578Z,5.47
2022-11-27T20:23:19.624Z,7.07
2022-11-27T20:30:21.230Z,6.38
2022-11-27T20:37:22.976Z,5.45
2022-11-27T20:44:24.572Z,6.40
2022-11-27T20:51:30.061Z,6.65
2022-11-27T20:58:32.277Z,6.35
2022-11-27T21:05:33.998Z,4.93
2022-11-27T21:12:36.015Z,6.13
2022-11-27T21:19:37.607Z,5.65
2022-11-27T21:26:40.110Z,5.35
2022-11-27T21:33:42.221Z,7.05
2022-11-27T21:40:43.851Z,6.57
2022-11-27T21:47:45.477Z,5.72
2022-11-27T21:54:47.119Z,6.15
2022-11-27T22:01:52.381Z,5.70
2022-11-27T22:08:56.065Z,5.75
2022-11-27T22:15:57.866Z,5.68
2022-11-27T22:22:59.491Z,5.25
2022-11-27T22:30:01.092Z,5.60
2022-11-27T22:37:05.812Z,4.57
2022-11-27T22:44:11.730Z,6.25
2022-11-27T22:51:13.521Z,5.85
2022-11-27T22:58:15.155Z,6.07
2022-11-27T23:05:16.762Z,6.85
2022-11-27T23:12:18.363Z,6.32
2022-11-27T23:19:21.024Z,6.95
2022-11-27T23:26:23.252Z,4.25
2022-11-27T23:33:24.815Z,4.97
2022-11-27T23:40:26.455Z,4.50
2022-11-27T23:47:28.096Z,6.00
2022-11-27T23:54:29.715Z,4.28
